sensor_id;sensor_type;location;lat;lon;timestamp;pressure;altitude;pressure_sealevel;temperature;humidity
27643;BME280;15053;48.618;10.024;2023-04-08T00:00:49;94389.50;;;7.54;93.96
27643;BME280;15053;48.618;10.024;2023-04-08T00:03:15;94387.44;;;7.51;94.27
27643;BME280;15053;48.618;10.024;2023-04-08T00:05:42;94392.09;;;7.49;93.81
27643;BME280;15053;48.618;10.024;2023-04-08T00:08:09;94395.72;;;7.48;93.83
27643;BME280;15053;48.618;10.024;2023-04-08T00:10:35;94395.72;;;7.48;94.35
27643;BME280;15053;48.618;10.024;2023-04-08T00:13:02;94390.28;;;7.45;93.46
27643;BME280;15053;48.618;10.024;2023-04-08T00:15:28;94389.28;;;7.41;93.90
27643;BME280;15053;48.618;10.024;2023-04-08T00:17:54;94407.91;;;7.43;93.93
27643;BME280;15053;48.618;10.024;2023-04-08T00:20:22;94401.94;;;7.42;93.32
27643;BME280;15053;48.618;10.024;2023-04-08T00:22:49;94399.63;;;7.41;93.10
27643;BME280;15053;48.618;10.024;2023-04-08T00:25:15;94397.56;;;7.38;93.60
27643;BME280;15053;48.618;10.024;2023-04-08T00:27:42;94394.97;;;7.38;94.35
27643;BME280;15053;48.618;10.024;2023-04-08T00:30:09;94402.75;;;7.38;94.44
27643;BME280;15053;48.618;10.024;2023-04-08T00:32:36;94400.16;;;7.38;94.61
27643;BME280;15053;48.618;10.024;2023-04-08T00:35:03;94403.25;;;7.40;94.13
27643;BME280;15053;48.618;10.024;2023-04-08T00:37:30;94399.63;;;7.41;94.95
27643;BME280;15053;48.618;10.024;2023-04-08T00:39:57;94396.53;;;7.44;94.39
27643;BME280;15053;48.618;10.024;2023-04-08T00:42:23;94390.28;;;7.45;94.76
27643;BME280;15053;48.618;10.024;2023-04-08T00:44:50;94394.97;;;7.43;94.56
27643;BME280;15053;48.618;10.024;2023-04-08T00:47:17;94392.38;;;7.43;94.79
27643;BME280;15053;48.618;10.024;2023-04-08T00:49:44;94391.59;;;7.42;94.76
27643;BME280;15053;48.618;10.024;2023-04-08T00:52:11;94403.75;;;7.42;94.32
27643;BME280;15053;48.618;10.024;2023-04-08T00:54:38;94404.03;;;7.40;95.17
27643;BME280;15053;48.618;10.024;2023-04-08T00:57:05;94402.47;;;7.39;94.83
27643;BME280;15053;48.618;10.024;2023-04-08T00:59:32;94394.19;;;7.37;94.97
27643;BME280;15053;48.618;10.024;2023-04-08T01:05:03;94397.56;;;7.38;95.11
27643;BME280;15053;48.618;10.024;2023-04-08T01:07:33;94398.59;;;7.37;95.53
27643;BME280;15053;48.618;10.024;2023-04-08T01:10:14;94374.78;;;7.30;95.19
27643;BME280;15053;48.618;10.024;2023-04-08T01:12:54;94395.75;;;7.38;95.23
27643;BME280;15053;48.618;10.024;2023-04-08T01:15:23;94392.88;;;7.40;95.76
27643;BME280;15053;48.618;10.024;2023-04-08T01:17:55;94386.19;;;7.39;95.72
27643;BME280;15053;48.618;10.024;2023-04-08T01:20:24;94385.41;;;7.38;95.33
27643;BME280;15053;48.618;10.024;2023-04-08T01:25:30;94385.41;;;7.38;96.30
27643;BME280;15053;48.618;10.024;2023-04-08T01:27:59;94385.13;;;7.40;95.84
27643;BME280;15053;48.618;10.024;2023-04-08T01:30:27;94385.41;;;7.38;95.92
27643;BME280;15053;48.618;10.024;2023-04-08T01:32:56;94390.81;;;7.37;96.21
27643;BME280;15053;48.618;10.024;2023-04-08T01:35:24;94383.06;;;7.37;95.70
27643;BME280;15053;48.618;10.024;2023-04-08T01:37:52;94382.03;;;7.38;96.40
27643;BME280;15053;48.618;10.024;2023-04-08T01:40:21;94384.34;;;7.39;96.07
27643;BME280;15053;48.618;10.024;2023-04-08T01:42:48;94394.97;;;7.38;96.98
27643;BME280;15053;48.618;10.024;2023-04-08T01:45:16;94385.41;;;7.38;95.94
27643;BME280;15053;48.618;10.024;2023-04-08T01:47:44;94392.38;;;7.38;96.72
27643;BME280;15053;48.618;10.024;2023-04-08T01:50:15;94384.63;;;7.38;96.66
27643;BME280;15053;48.618;10.024;2023-04-08T01:52:44;94382.53;;;7.40;97.58
27643;BME280;15053;48.618;10.024;2023-04-08T01:55:12;94382.53;;;7.40;97.26
27643;BME280;15053;48.618;10.024;2023-04-08T01:57:40;94388.50;;;7.40;97.43
27643;BME280;15053;48.618;10.024;2023-04-08T02:00:11;94379.44;;;7.38;97.38
27643;BME280;15053;48.618;10.024;2023-04-08T02:02:50;94385.41;;;7.38;97.02
27643;BME280;15053;48.618;10.024;2023-04-08T02:05:17;94395.47;;;7.40;98.14
27643;BME280;15053;48.618;10.024;2023-04-08T02:07:46;94389.00;;;7.42;97.57
27643;BME280;15053;48.618;10.024;2023-04-08T02:10:13;94393.66;;;7.45;96.96
27643;BME280;15053;48.618;10.024;2023-04-08T02:12:41;94391.31;;;7.49;97.67
27643;BME280;15053;48.618;10.024;2023-04-08T02:15:10;94390.00;;;7.51;97.47
27643;BME280;15053;48.618;10.024;2023-04-08T02:17:46;94387.44;;;7.51;96.84
27643;BME280;15053;48.618;10.024;2023-04-08T02:23:12;94388.72;;;7.54;97.57
27643;BME280;15053;48.618;10.024;2023-04-08T02:25:42;94386.91;;;7.54;97.76
27643;BME280;15053;48.618;10.024;2023-04-08T02:28:10;94385.09;;;7.55;97.18
27643;BME280;15053;48.618;10.024;2023-04-08T02:30:46;94386.63;;;7.56;96.96
27643;BME280;15053;48.618;10.024;2023-04-08T02:33:14;94391.03;;;7.55;97.52
27643;BME280;15053;48.618;10.024;2023-04-08T02:35:43;94385.84;;;7.55;96.41
27643;BME280;15053;48.618;10.024;2023-04-08T02:38:10;94393.88;;;7.59;97.21
27643;BME280;15053;48.618;10.024;2023-04-08T02:40:36;94392.84;;;7.60;96.54
27643;BME280;15053;48.618;10.024;2023-04-08T02:43:03;94396.75;;;7.57;96.83
27643;BME280;15053;48.618;10.024;2023-04-08T02:45:31;94394.94;;;7.58;96.47
27643;BME280;15053;48.618;10.024;2023-04-08T02:47:59;94396.47;;;7.59;96.88
27643;BME280;15053;48.618;10.024;2023-04-08T02:50:26;94389.75;;;7.58;96.58
27643;BME280;15053;48.618;10.024;2023-04-08T02:52:52;94394.69;;;7.54;96.75
27643;BME280;15053;48.618;10.024;2023-04-08T02:55:19;94388.72;;;7.54;96.52
27643;BME280;15053;48.618;10.024;2023-04-08T02:57:46;94395.19;;;7.56;96.55
27643;BME280;15053;48.618;10.024;2023-04-08T03:00:13;94395.47;;;7.55;96.20
27643;BME280;15053;48.618;10.024;2023-04-08T03:02:40;94400.63;;;7.55;96.06
27643;BME280;15053;48.618;10.024;2023-04-08T03:05:07;94396.75;;;7.57;96.06
27643;BME280;15053;48.618;10.024;2023-04-08T03:07:34;94395.97;;;7.57;96.57
27643;BME280;15053;48.618;10.024;2023-04-08T03:10:02;94390.28;;;7.55;96.37
27643;BME280;15053;48.618;10.024;2023-04-08T03:12:28;94390.00;;;7.56;96.71
27643;BME280;15053;48.618;10.024;2023-04-08T03:14:55;94391.28;;;7.59;96.19
27643;BME280;15053;48.618;10.024;2023-04-08T03:17:21;94394.66;;;7.59;96.21
27643;BME280;15053;48.618;10.024;2023-04-08T03:19:48;94392.06;;;7.59;96.25
27643;BME280;15053;48.618;10.024;2023-04-08T03:22:14;94400.13;;;7.58;96.41
27643;BME280;15053;48.618;10.024;2023-04-08T03:24:41;94397.00;;;7.56;95.72
27643;BME280;15053;48.618;10.024;2023-04-08T03:27:07;94398.03;;;7.55;96.12
27643;BME280;15053;48.618;10.024;2023-04-08T03:29:33;94395.97;;;7.52;96.25
27643;BME280;15053;48.618;10.024;2023-04-08T03:32:00;94397.53;;;7.48;96.35
27643;BME280;15053;48.618;10.024;2023-04-08T03:34:27;94390.81;;;7.47;96.82
27643;BME280;15053;48.618;10.024;2023-04-08T03:36:53;94395.47;;;7.45;96.49
27643;BME280;15053;48.618;10.024;2023-04-08T03:39:20;94399.13;;;7.44;96.24
27643;BME280;15053;48.618;10.024;2023-04-08T03:41:46;94399.63;;;7.41;96.68
27643;BME280;15053;48.618;10.024;2023-04-08T03:44:13;94401.72;;;7.39;96.68
27643;BME280;15053;48.618;10.024;2023-04-08T03:46:39;94397.06;;;7.36;96.35
27643;BME280;15053;48.618;10.024;2023-04-08T03:49:06;94403.78;;;7.37;95.79
27643;BME280;15053;48.618;10.024;2023-04-08T03:51:32;94401.97;;;7.37;96.51
27643;BME280;15053;48.618;10.024;2023-04-08T03:53:59;94403.00;;;7.36;96.99
27643;BME280;15053;48.618;10.024;2023-04-08T03:56:25;94399.63;;;7.41;96.16
27643;BME280;15053;48.618;10.024;2023-04-08T03:58:52;94403.78;;;7.37;95.90
27643;BME280;15053;48.618;10.024;2023-04-08T04:01:18;94397.84;;;7.31;96.26
27643;BME280;15053;48.618;10.024;2023-04-08T04:03:45;94398.34;;;7.28;95.47
27643;BME280;15053;48.618;10.024;2023-04-08T04:06:11;94401.22;;;7.27;95.79
27643;BME280;15053;48.618;10.024;2023-04-08T04:08:38;94400.44;;;7.21;96.43
27643;BME280;15053;48.618;10.024;2023-04-08T04:11:04;94399.16;;;7.19;96.43
27643;BME280;15053;48.618;10.024;2023-04-08T04:13:31;94404.84;;;7.16;96.27
27643;BME280;15053;48.618;10.024;2023-04-08T04:15:57;94404.59;;;7.12;96.46
27643;BME280;15053;48.618;10.024;2023-04-08T04:18:24;94401.00;;;7.08;96.14
27643;BME280;15053;48.618;10.024;2023-04-08T04:20:50;94405.38;;;7.07;96.33
27643;BME280;15053;48.618;10.024;2023-04-08T04:23:17;94402.28;;;7.05;96.75
27643;BME280;15053;48.618;10.024;2023-04-08T04:25:43;94405.13;;;7.04;97.24
27643;BME280;15053;48.618;10.024;2023-04-08T04:28:10;94404.84;;;7.00;96.81
27643;BME280;15053;48.618;10.024;2023-04-08T04:30:39;94400.75;;;6.99;97.13
27643;BME280;15053;48.618;10.024;2023-04-08T04:33:06;94405.13;;;7.04;97.46
27643;BME280;15053;48.618;10.024;2023-04-08T04:35:32;94410.03;;;7.00;97.38
27643;BME280;15053;48.618;10.024;2023-04-08T04:37:59;94408.75;;;6.98;97.30
27643;BME280;15053;48.618;10.024;2023-04-08T04:40:25;94416.28;;;6.94;97.35
27643;BME280;15053;48.618;10.024;2023-04-08T04:42:52;94423.50;;;6.92;97.62
27643;BME280;15053;48.618;10.024;2023-04-08T04:45:18;94420.41;;;6.95;98.59
27643;BME280;15053;48.618;10.024;2023-04-08T04:47:45;94423.00;;;6.95;98.57
27643;BME280;15053;48.618;10.024;2023-04-08T04:50:11;94419.38;;;6.91;98.49
27643;BME280;15053;48.618;10.024;2023-04-08T04:52:37;94425.84;;;6.89;98.73
27643;BME280;15053;48.618;10.024;2023-04-08T04:55:04;94435.44;;;6.88;98.94
27643;BME280;15053;48.618;10.024;2023-04-08T04:57:31;94430.25;;;6.88;98.15
27643;BME280;15053;48.618;10.024;2023-04-08T04:59:57;94425.06;;;6.88;99.14
27643;BME280;15053;48.618;10.024;2023-04-08T05:02:24;94425.06;;;6.88;98.95
27643;BME280;15053;48.618;10.024;2023-04-08T05:04:50;94430.25;;;6.88;99.65
27643;BME280;15053;48.618;10.024;2023-04-08T05:07:18;94446.56;;;6.89;99.02
27643;BME280;15053;48.618;10.024;2023-04-08T05:09:45;94440.09;;;6.91;98.79
27643;BME280;15053;48.618;10.024;2023-04-08T05:12:12;94451.47;;;6.90;98.74
27643;BME280;15053;48.618;10.024;2023-04-08T05:14:38;94439.81;;;6.88;98.61
27643;BME280;15053;48.618;10.024;2023-04-08T05:17:06;94444.22;;;6.87;98.46
27643;BME280;15053;48.618;10.024;2023-04-08T05:19:33;94444.50;;;6.86;98.71
27643;BME280;15053;48.618;10.024;2023-04-08T05:21:59;94445.00;;;6.83;98.43
27643;BME280;15053;48.618;10.024;2023-04-08T05:24:26;94447.06;;;6.81;99.19
27643;BME280;15053;48.618;10.024;2023-04-08T05:26:52;94457.94;;;6.78;98.92
27643;BME280;15053;48.618;10.024;2023-04-08T05:29:18;94446.81;;;6.72;98.86
27643;BME280;15053;48.618;10.024;2023-04-08T05:31:46;94456.88;;;6.74;99.26
27643;BME280;15053;48.618;10.024;2023-04-08T05:34:13;94453.56;;;6.78;99.33
27643;BME280;15053;48.618;10.024;2023-04-08T05:36:40;94458.47;;;6.80;100.00
27643;BME280;15053;48.618;10.024;2023-04-08T05:39:07;94458.19;;;6.81;100.00
27643;BME280;15053;48.618;10.024;2023-04-08T05:41:34;94463.38;;;6.81;100.00
27643;BME280;15053;48.618;10.024;2023-04-08T05:44:00;94463.38;;;6.81;99.61
27643;BME280;15053;48.618;10.024;2023-04-08T05:46:27;94455.59;;;6.81;99.71
27643;BME280;15053;48.618;10.024;2023-04-08T05:48:53;94457.16;;;6.77;98.94
27643;BME280;15053;48.618;10.024;2023-04-08T05:51:19;94463.91;;;6.83;98.83
27643;BME280;15053;48.618;10.024;2023-04-08T05:53:46;94458.97;;;6.82;99.61
27643;BME280;15053;48.618;10.024;2023-04-08T05:56:12;94468.28;;;6.83;99.53
27643;BME280;15053;48.618;10.024;2023-04-08T05:58:39;94468.53;;;6.81;99.50
27643;BME280;15053;48.618;10.024;2023-04-08T06:01:05;94468.28;;;6.78;98.97
27643;BME280;15053;48.618;10.024;2023-04-08T06:03:32;94472.69;;;6.77;99.42
27643;BME280;15053;48.618;10.024;2023-04-08T06:05:59;94470.88;;;6.73;99.05
27643;BME280;15053;48.618;10.024;2023-04-08T06:08:25;94482.25;;;6.77;99.48
27643;BME280;15053;48.618;10.024;2023-04-08T06:10:52;94483.31;;;6.81;99.04
27643;BME280;15053;48.618;10.024;2023-04-08T06:13:18;94483.56;;;6.84;99.38
27643;BME280;15053;48.618;10.024;2023-04-08T06:15:47;94487.72;;;6.85;99.46
27643;BME280;15053;48.618;10.024;2023-04-08T06:18:16;94484.34;;;6.85;99.22
27643;BME280;15053;48.618;10.024;2023-04-08T06:20:42;94492.88;;;6.85;99.17
27643;BME280;15053;48.618;10.024;2023-04-08T06:23:09;94493.91;;;6.84;99.89
27643;BME280;15053;48.618;10.024;2023-04-08T06:25:35;94496.78;;;6.83;99.08
27643;BME280;15053;48.618;10.024;2023-04-08T06:28:02;94495.47;;;6.80;99.25
27643;BME280;15053;48.618;10.024;2023-04-08T06:30:28;94492.38;;;6.78;98.56
27643;BME280;15053;48.618;10.024;2023-04-08T06:32:55;94499.59;;;6.81;99.88
27643;BME280;15053;48.618;10.024;2023-04-08T06:35:21;94492.88;;;6.80;99.48
27643;BME280;15053;48.618;10.024;2023-04-08T06:37:48;94490.03;;;6.82;99.75
27643;BME280;15053;48.618;10.024;2023-04-08T06:40:14;94494.19;;;6.83;99.83
27643;BME280;15053;48.618;10.024;2023-04-08T06:42:41;94497.03;;;6.86;100.00
27643;BME280;15053;48.618;10.024;2023-04-08T06:45:28;94497.03;;;6.91;98.88
27643;BME280;15053;48.618;10.024;2023-04-08T06:47:54;94496.53;;;6.99;100.00
27643;BME280;15053;48.618;10.024;2023-04-08T06:50:21;94501.44;;;7.06;99.56
27643;BME280;15053;48.618;10.024;2023-04-08T06:52:48;94498.09;;;7.16;100.00
27643;BME280;15053;48.618;10.024;2023-04-08T06:55:14;94500.69;;;7.16;99.36
27643;BME280;15053;48.618;10.024;2023-04-08T06:57:41;94503.78;;;7.18;99.70
27643;BME280;15053;48.618;10.024;2023-04-08T07:00:08;94503.78;;;7.18;99.39
27643;BME280;15053;48.618;10.024;2023-04-08T07:02:35;94504.31;;;7.20;99.51
27643;BME280;15053;48.618;10.024;2023-04-08T07:05:02;94507.41;;;7.22;99.82
27643;BME280;15053;48.618;10.024;2023-04-08T07:07:29;94510.00;;;7.27;99.40
27643;BME280;15053;48.618;10.024;2023-04-08T07:09:55;94511.03;;;7.31;98.94
27643;BME280;15053;48.618;10.024;2023-04-08T07:12:22;94515.69;;;7.34;98.30
27643;BME280;15053;48.618;10.024;2023-04-08T07:14:48;94504.56;;;7.38;98.91
27643;BME280;15053;48.618;10.024;2023-04-08T07:17:15;94513.34;;;7.47;99.06
27643;BME280;15053;48.618;10.024;2023-04-08T07:19:41;94503.75;;;7.53;98.07
27643;BME280;15053;48.618;10.024;2023-04-08T07:22:09;94516.19;;;7.66;98.33
27643;BME280;15053;48.618;10.024;2023-04-08T07:24:35;94510.97;;;7.81;98.25
27643;BME280;15053;48.618;10.024;2023-04-08T07:27:02;94517.19;;;7.90;98.28
27643;BME280;15053;48.618;10.024;2023-04-08T07:29:28;94518.97;;;7.95;97.36
27643;BME280;15053;48.618;10.024;2023-04-08T07:31:55;94528.31;;;8.01;97.16
27643;BME280;15053;48.618;10.024;2023-04-08T07:34:21;94526.25;;;7.98;95.70
27643;BME280;15053;48.618;10.024;2023-04-08T07:36:47;94520.78;;;7.94;94.95
27643;BME280;15053;48.618;10.024;2023-04-08T07:39:14;94520.28;;;7.92;93.52
27643;BME280;15053;48.618;10.024;2023-04-08T07:41:40;94523.38;;;7.94;93.44
27643;BME280;15053;48.618;10.024;2023-04-08T07:44:07;94525.69;;;8.06;93.76
27643;BME280;15053;48.618;10.024;2023-04-08T07:46:36;94522.06;;;8.12;93.11
27643;BME280;15053;48.618;10.024;2023-04-08T07:49:04;94521.53;;;8.15;93.67
27643;BME280;15053;48.618;10.024;2023-04-08T07:51:30;94525.91;;;8.19;92.78
27643;BME280;15053;48.618;10.024;2023-04-08T07:53:56;94527.72;;;8.24;92.40
27643;BME280;15053;48.618;10.024;2023-04-08T07:56:23;94526.94;;;8.23;91.64
27643;BME280;15053;48.618;10.024;2023-04-08T07:58:49;94524.59;;;8.22;91.40
27643;BME280;15053;48.618;10.024;2023-04-08T08:01:20;94531.09;;;8.19;90.80
27643;BME280;15053;48.618;10.024;2023-04-08T08:03:50;94530.31;;;8.19;90.12
27643;BME280;15053;48.618;10.024;2023-04-08T08:06:18;94533.94;;;8.23;90.37
27643;BME280;15053;48.618;10.024;2023-04-08T08:08:45;94533.97;;;8.28;90.50
27643;BME280;15053;48.618;10.024;2023-04-08T08:11:11;94536.78;;;8.37;90.64
27643;BME280;15053;48.618;10.024;2023-04-08T08:13:38;94537.03;;;8.40;89.92
27643;BME280;15053;48.618;10.024;2023-04-08T08:16:04;94545.84;;;8.44;90.45
27643;BME280;15053;48.618;10.024;2023-04-08T08:18:34;94541.94;;;8.47;89.63
27643;BME280;15053;48.618;10.024;2023-04-08T08:21:01;94544.28;;;8.48;89.02
27643;BME280;15053;48.618;10.024;2023-04-08T08:23:28;94548.16;;;8.51;88.29
27643;BME280;15053;48.618;10.024;2023-04-08T08:26:02;94542.44;;;8.54;88.27
27643;BME280;15053;48.618;10.024;2023-04-08T08:28:29;94552.81;;;8.54;87.71
27643;BME280;15053;48.618;10.024;2023-04-08T08:30:55;94549.94;;;8.55;87.39
27643;BME280;15053;48.618;10.024;2023-04-08T08:33:23;94552.25;;;8.62;87.53
27643;BME280;15053;48.618;10.024;2023-04-08T08:35:50;94554.56;;;8.68;87.17
27643;BME280;15053;48.618;10.024;2023-04-08T08:38:17;94560.00;;;8.72;86.85
27643;BME280;15053;48.618;10.024;2023-04-08T08:40:44;94559.66;;;8.88;86.99
27643;BME280;15053;48.618;10.024;2023-04-08T08:43:10;94553.66;;;8.93;86.60
27643;BME280;15053;48.618;10.024;2023-04-08T08:45:41;94556.97;;;9.04;85.22
27643;BME280;15053;48.618;10.024;2023-04-08T08:48:08;94559.78;;;9.07;84.67
27643;BME280;15053;48.618;10.024;2023-04-08T08:50:34;94561.88;;;9.10;84.43
27643;BME280;15053;48.618;10.024;2023-04-08T08:53:01;94569.88;;;9.19;83.53
27643;BME280;15053;48.618;10.024;2023-04-08T08:55:32;94571.69;;;9.18;82.27
27643;BME280;15053;48.618;10.024;2023-04-08T08:58:07;94574.78;;;9.20;80.21
27643;BME280;15053;48.618;10.024;2023-04-08T09:00:38;94579.69;;;9.27;79.40
27643;BME280;15053;48.618;10.024;2023-04-08T09:03:18;94584.34;;;9.30;78.20
27643;BME280;15053;48.618;10.024;2023-04-08T09:08:31;94581.75;;;9.30;75.88
27643;BME280;15053;48.618;10.024;2023-04-08T09:11:19;94582.53;;;9.30;75.89
27643;BME280;15053;48.618;10.024;2023-04-08T09:13:47;94577.56;;;9.34;76.17
27643;BME280;15053;48.618;10.024;2023-04-08T09:16:15;94573.66;;;9.36;75.15
27643;BME280;15053;48.618;10.024;2023-04-08T09:18:44;94575.44;;;9.41;74.69
27643;BME280;15053;48.618;10.024;2023-04-08T09:21:12;94579.56;;;9.47;74.00
27643;BME280;15053;48.618;10.024;2023-04-08T09:23:44;94573.53;;;9.52;72.80
27643;BME280;15053;48.618;10.024;2023-04-08T09:26:17;94577.69;;;9.53;72.27
27643;BME280;15053;48.618;10.024;2023-04-08T09:31:25;94580.72;;;9.65;70.85
27643;BME280;15053;48.618;10.024;2023-04-08T09:33:55;94582.81;;;9.63;70.53
27643;BME280;15053;48.618;10.024;2023-04-08T09:36:21;94576.34;;;9.60;70.83
27643;BME280;15053;48.618;10.024;2023-04-08T09:38:48;94582.84;;;9.58;70.44
27643;BME280;15053;48.618;10.024;2023-04-08T09:41:16;94582.34;;;9.56;70.73
27643;BME280;15053;48.618;10.024;2023-04-08T09:43:47;94579.50;;;9.52;70.36
27643;BME280;15053;48.618;10.024;2023-04-08T09:46:19;94574.94;;;9.39;70.29
27643;BME280;15053;48.618;10.024;2023-04-08T09:49:26;94576.00;;;9.33;69.95
27643;BME280;15053;48.618;10.024;2023-04-08T09:52:20;94577.66;;;9.19;69.81
27643;BME280;15053;48.618;10.024;2023-04-08T09:55:01;94579.25;;;9.10;69.87
27643;BME280;15053;48.618;10.024;2023-04-08T09:58:03;94586.03;;;9.11;70.54
27643;BME280;15053;48.618;10.024;2023-04-08T10:00:38;94581.84;;;9.15;70.46
27643;BME280;15053;48.618;10.024;2023-04-08T10:03:10;94584.19;;;9.16;71.24
27643;BME280;15053;48.618;10.024;2023-04-08T10:05:43;94583.41;;;9.16;71.41
27643;BME280;15053;48.618;10.024;2023-04-08T10:08:10;94579.00;;;9.11;70.31
27643;BME280;15053;48.618;10.024;2023-04-08T10:10:40;94580.91;;;9.01;70.55
27643;BME280;15053;48.618;10.024;2023-04-08T10:13:08;94580.91;;;8.96;70.23
27643;BME280;15053;48.618;10.024;2023-04-08T10:15:35;94586.66;;;8.93;69.55
27643;BME280;15053;48.618;10.024;2023-04-08T10:23:51;94581.66;;;9.01;69.37
27643;BME280;15053;48.618;10.024;2023-04-08T10:25:49;94574.91;;;9.00;69.41
27643;BME280;15053;48.618;10.024;2023-04-08T10:30:49;94575.59;;;9.16;68.37
27643;BME280;15053;48.618;10.024;2023-04-08T10:33:20;94586.28;;;9.14;67.34
27643;BME280;15053;48.618;10.024;2023-04-08T10:35:58;94589.94;;;9.08;66.71
27643;BME280;15053;48.618;10.024;2023-04-08T10:38:25;94591.53;;;8.99;67.23
27643;BME280;15053;48.618;10.024;2023-04-08T10:40:53;94590.50;;;9.00;67.31
27643;BME280;15053;48.618;10.024;2023-04-08T10:43:20;94585.00;;;9.07;67.50
27643;BME280;15053;48.618;10.024;2023-04-08T10:45:47;94582.16;;;9.08;67.81
27643;BME280;15053;48.618;10.024;2023-04-08T10:48:20;94589.63;;;9.15;67.96
27643;BME280;15053;48.618;10.024;2023-04-08T10:51:02;94589.09;;;9.18;67.99
27643;BME280;15053;48.618;10.024;2023-04-08T10:53:34;94588.88;;;9.14;67.41
27643;BME280;15053;48.618;10.024;2023-04-08T10:56:12;94589.63;;;9.15;67.64
27643;BME280;15053;48.618;10.024;2023-04-08T10:58:51;94586.78;;;9.16;67.56
27643;BME280;15053;48.618;10.024;2023-04-08T11:01:18;94586.25;;;9.19;67.71
27643;BME280;15053;48.618;10.024;2023-04-08T11:03:45;94579.97;;;9.20;68.02
27643;BME280;15053;48.618;10.024;2023-04-08T11:06:12;94582.03;;;9.23;68.16
27643;BME280;15053;48.618;10.024;2023-04-08T11:08:39;94578.69;;;9.23;68.24
27643;BME280;15053;48.618;10.024;2023-04-08T11:11:06;94578.66;;;9.28;68.44
27643;BME280;15053;48.618;10.024;2023-04-08T11:13:39;94570.09;;;9.22;68.19
27643;BME280;15053;48.618;10.024;2023-04-08T11:16:17;94574.25;;;9.23;67.70
27643;BME280;15053;48.618;10.024;2023-04-08T11:18:44;94574.53;;;9.22;67.10
27643;BME280;15053;48.618;10.024;2023-04-08T11:21:11;94577.63;;;9.24;66.94
27643;BME280;15053;48.618;10.024;2023-04-08T11:23:38;94578.88;;;9.31;66.67
27643;BME280;15053;48.618;10.024;2023-04-08T11:26:04;94582.50;;;9.35;66.50
27643;BME280;15053;48.618;10.024;2023-04-08T11:28:31;94584.56;;;9.38;66.53
27643;BME280;15053;48.618;10.024;2023-04-08T11:30:59;94577.75;;;9.47;65.89
27643;BME280;15053;48.618;10.024;2023-04-08T11:33:25;94584.44;;;9.54;65.28
27643;BME280;15053;48.618;10.024;2023-04-08T11:35:55;94582.84;;;9.58;65.58
27643;BME280;15053;48.618;10.024;2023-04-08T11:38:23;94581.53;;;9.60;64.90
27643;BME280;15053;48.618;10.024;2023-04-08T11:40:54;94580.50;;;9.61;65.41
27643;BME280;15053;48.618;10.024;2023-04-08T11:43:21;94579.16;;;9.64;65.08
27643;BME280;15053;48.618;10.024;2023-04-08T11:45:48;94568.78;;;9.59;64.13
27643;BME280;15053;48.618;10.024;2023-04-08T11:48:16;94573.78;;;9.55;63.84
27643;BME280;15053;48.618;10.024;2023-04-08T11:50:43;94573.09;;;9.44;63.22
27643;BME280;15053;48.618;10.024;2023-04-08T11:53:20;94576.75;;;9.38;64.22
27643;BME280;15053;48.618;10.024;2023-04-08T11:55:47;94581.22;;;9.33;64.50
27643;BME280;15053;48.618;10.024;2023-04-08T11:58:14;94583.53;;;9.34;64.29
27643;BME280;15053;48.618;10.024;2023-04-08T12:00:41;94588.19;;;9.37;64.08
27643;BME280;15053;48.618;10.024;2023-04-08T12:03:08;94589.75;;;9.38;64.11
27643;BME280;15053;48.618;10.024;2023-04-08T12:05:35;94594.94;;;9.38;63.63
27643;BME280;15053;48.618;10.024;2023-04-08T12:08:01;94596.56;;;9.29;62.60
27643;BME280;15053;48.618;10.024;2023-04-08T12:10:28;94584.41;;;9.20;62.66
27643;BME280;15053;48.618;10.024;2023-04-08T12:12:55;94595.56;;;9.20;63.26
27643;BME280;15053;48.618;10.024;2023-04-08T12:15:21;94600.25;;;9.18;63.30
27643;BME280;15053;48.618;10.024;2023-04-08T12:17:48;94591.44;;;9.19;63.74
27643;BME280;15053;48.618;10.024;2023-04-08T12:20:14;94596.09;;;9.22;64.00
27643;BME280;15053;48.618;10.024;2023-04-08T12:22:42;94602.81;;;9.23;64.35
27643;BME280;15053;48.618;10.024;2023-04-08T12:25:09;94600.75;;;9.25;64.75
27643;BME280;15053;48.618;10.024;2023-04-08T12:27:35;94597.63;;;9.23;64.79
27643;BME280;15053;48.618;10.024;2023-04-08T12:30:02;94603.34;;;9.25;65.12
27643;BME280;15053;48.618;10.024;2023-04-08T12:32:29;94596.53;;;9.34;65.52
27643;BME280;15053;48.618;10.024;2023-04-08T12:34:55;94595.94;;;9.42;64.88
27643;BME280;15053;48.618;10.024;2023-04-08T12:37:22;94595.94;;;9.42;64.70
27643;BME280;15053;48.618;10.024;2023-04-08T12:39:48;94590.75;;;9.42;65.14
27643;BME280;15053;48.618;10.024;2023-04-08T12:42:15;94591.06;;;9.36;64.57
27643;BME280;15053;48.618;10.024;2023-04-08T12:44:41;94596.47;;;9.39;64.51
27643;BME280;15053;48.618;10.024;2023-04-08T12:47:08;94604.53;;;9.43;64.26
27643;BME280;15053;48.618;10.024;2023-04-08T12:49:34;94601.13;;;9.47;63.93
27643;BME280;15053;48.618;10.024;2023-04-08T12:52:15;94603.94;;;9.51;64.06
27643;BME280;15053;48.618;10.024;2023-04-08T12:54:41;94600.84;;;9.49;63.44
27643;BME280;15053;48.618;10.024;2023-04-08T12:57:07;94600.09;;;9.43;63.31
27643;BME280;15053;48.618;10.024;2023-04-08T12:59:34;94604.59;;;9.33;63.45
27643;BME280;15053;48.618;10.024;2023-04-08T13:02:01;94596.56;;;9.29;63.67
27643;BME280;15053;48.618;10.024;2023-04-08T13:04:27;94602.81;;;9.28;63.83
27643;BME280;15053;48.618;10.024;2023-04-08T13:06:54;94605.41;;;9.28;64.10
27643;BME280;15053;48.618;10.024;2023-04-08T13:09:21;94601.03;;;9.19;64.32
27643;BME280;15053;48.618;10.024;2023-04-08T13:11:48;94596.13;;;9.12;64.87
27643;BME280;15053;48.618;10.024;2023-04-08T13:14:14;94598.53;;;9.04;65.25
27643;BME280;15053;48.618;10.024;2023-04-08T13:16:41;94603.22;;;9.02;65.25
27643;BME280;15053;48.618;10.024;2023-04-08T13:19:08;94593.38;;;8.94;65.47
27643;BME280;15053;48.618;10.024;2023-04-08T13:21:35;94599.38;;;8.89;65.94
27643;BME280;15053;48.618;10.024;2023-04-08T13:24:01;94601.19;;;8.94;66.00
27643;BME280;15053;48.618;10.024;2023-04-08T13:26:28;94600.41;;;8.93;66.31